Time;durP1;ratioP1;P1;durP2;ratioP2;P2;SDS_P1;SDS_P2;PMS_P1;PMS_P2;Temp;Humidity;BMP_temperature;BMP_pressure;BME280_temperature;BME280_humidity;BME280_pressure;Samples;Min_cycle;Max_cycle;Signal;HPM_P1;HPM_P2
2022/11/21 00:00:51;;;;;;;43.50;21.52;;;;;;;-3.30;68.73;99907.38;4980344;28;19922;-67
2022/11/21 00:03:17;;;;;;;42.03;21.23;;;;;;;-3.31;68.45;99897.81;4980679;28;20062;-67
2022/11/21 00:05:46;;;;;;;40.42;19.40;;;;;;;-3.51;68.92;99892.91;4982005;28;20042;-66
2022/11/21 00:08:15;;;;;;;39.55;21.38;;;;;;;-3.27;68.57;99893.22;4981162;28;20053;-65
2022/11/21 00:10:42;;;;;;;45.65;21.80;;;;;;;-3.60;69.92;99878.56;4981560;28;20053;-66
2022/11/21 00:13:15;;;;;;;42.53;20.05;;;;;;;-2.95;68.04;99882.56;4982810;28;20065;-66
2022/11/21 00:15:42;;;;;;;39.20;20.70;;;;;;;-2.82;66.78;99875.59;4981273;28;20043;-66
2022/11/21 00:18:12;;;;;;;40.60;20.67;;;;;;;-2.82;66.53;99867.72;4982007;28;20059;-66
2022/11/21 00:20:40;;;;;;;44.42;20.45;;;;;;;-2.97;67.48;99866.88;4980512;28;20057;-66
2022/11/21 00:23:07;;;;;;;38.40;20.00;;;;;;;-2.98;67.63;99859.97;4981899;28;20050;-67
2022/11/21 00:25:35;;;;;;;43.65;20.00;;;;;;;-3.13;67.99;99855.66;4980054;28;20072;-68
2022/11/21 00:28:01;;;;;;;43.10;21.52;;;;;;;-2.95;67.63;99857.16;4977875;28;20046;-67
2022/11/21 00:30:28;;;;;;;39.55;20.27;;;;;;;-2.60;66.39;99852.31;4985926;28;20415;-66
2022/11/21 00:32:56;;;;;;;40.53;20.40;;;;;;;-2.39;66.07;99855.34;4981514;28;20428;-67
2022/11/21 00:35:23;;;;;;;38.58;19.73;;;;;;;-2.36;65.41;99844.63;4981110;28;20047;-67
2022/11/21 00:37:49;;;;;;;41.42;20.30;;;;;;;-2.29;65.22;99841.63;4982926;28;20050;-66
2022/11/21 00:40:17;;;;;;;41.90;20.58;;;;;;;-2.27;65.65;99839.72;4983939;28;20059;-67
2022/11/21 00:42:43;;;;;;;37.10;19.17;;;;;;;-2.34;65.43;99842.78;4984574;28;20054;-66
2022/11/21 00:45:10;;;;;;;39.40;21.48;;;;;;;-2.25;65.49;99840.47;4984633;28;20245;-68
2022/11/21 00:47:37;;;;;;;42.15;21.35;;;;;;;-2.16;64.72;99839.88;4981081;28;20057;-66
2022/11/21 00:50:04;;;;;;;38.88;19.67;;;;;;;-2.16;65.12;99842.50;4984023;28;20039;-66
2022/11/21 00:52:30;;;;;;;38.58;20.50;;;;;;;-2.08;64.36;99839.38;4983512;28;20062;-66
2022/11/21 00:54:57;;;;;;;40.95;19.60;;;;;;;-2.16;65.21;99834.63;4980997;28;20047;-66
2022/11/21 00:57:23;;;;;;;40.60;19.65;;;;;;;-2.22;65.22;99827.97;4964178;28;20057;-66
2022/11/21 00:59:50;;;;;;;38.08;19.63;;;;;;;-2.19;65.00;99829.56;4964580;28;20058;-66
2022/11/21 01:02:16;;;;;;;40.00;19.98;;;;;;;-2.23;65.71;99830.72;4964191;28;20051;-68
2022/11/21 01:04:43;;;;;;;40.72;20.17;;;;;;;-2.22;65.55;99829.78;4963835;28;20051;-66
2022/11/21 01:07:12;;;;;;;40.67;20.15;;;;;;;-2.31;65.80;99822.47;4964096;28;20057;-66
2022/11/21 01:09:38;;;;;;;38.65;20.00;;;;;;;-2.13;65.16;99832.63;4963979;28;20514;-66
2022/11/21 01:12:05;;;;;;;43.33;21.42;;;;;;;-2.05;65.04;99826.88;4964891;28;20082;-66
2022/11/21 01:14:31;;;;;;;40.30;20.15;;;;;;;-2.16;65.08;99827.59;4963833;28;20054;-67
2022/11/21 01:16:58;;;;;;;39.58;20.75;;;;;;;-2.03;65.47;99819.72;4963503;28;20066;-66
2022/11/21 01:19:24;;;;;;;38.88;20.65;;;;;;;-2.02;65.82;99812.69;4963465;28;20118;-66
2022/11/21 01:21:51;;;;;;;41.20;20.23;;;;;;;-2.12;65.91;99818.56;4963714;28;20066;-68
2022/11/21 01:24:17;;;;;;;46.05;20.63;;;;;;;-2.43;66.07;99818.88;4963332;28;20059;-66
2022/11/21 01:26:44;;;;;;;41.15;21.58;;;;;;;-2.92;67.68;99814.97;4964287;28;20051;-67
2022/11/21 01:29:10;;;;;;;43.45;21.10;;;;;;;-3.22;68.91;99809.84;4962950;28;20057;-66
2022/11/21 01:31:37;;;;;;;36.53;20.20;;;;;;;-2.76;68.35;99809.56;4958841;28;20054;-66
2022/11/21 01:34:03;;;;;;;40.80;20.58;;;;;;;-2.35;66.85;99812.16;4965081;28;20057;-66
2022/11/21 01:36:32;;;;;;;42.70;20.45;;;;;;;-2.44;67.08;99801.41;4963876;28;20055;-68
2022/11/21 01:39:04;;;;;;;43.63;21.38;;;;;;;-2.18;66.62;99805.81;4962898;28;20051;-66
2022/11/21 01:41:34;;;;;;;38.58;20.67;;;;;;;-2.22;66.43;99803.50;4963714;28;20059;-68
2022/11/21 01:44:05;;;;;;;38.00;19.92;;;;;;;-2.18;66.66;99803.19;4964115;28;20112;-65
2022/11/21 01:46:32;;;;;;;40.53;21.23;;;;;;;-2.14;66.75;99802.03;4963492;28;20059;-66
2022/11/21 01:48:58;;;;;;;41.05;21.67;;;;;;;-2.18;66.78;99807.59;4961337;28;20050;-66
2022/11/21 01:51:31;;;;;;;39.15;20.80;;;;;;;-2.00;66.13;99802.91;4963511;28;20055;-67
2022/11/21 01:54:13;;;;;;;44.20;21.13;;;;;;;-2.03;65.84;99806.56;4963051;28;20409;-66
2022/11/21 01:56:58;;;;;;;43.90;20.38;;;;;;;-2.31;66.76;99804.94;4978239;28;20518;-66
2022/11/21 01:59:33;;;;;;;39.85;19.77;;;;;;;-2.37;66.48;99795.69;4981564;28;20055;-67
2022/11/21 02:02:02;;;;;;;42.15;20.83;;;;;;;-3.02;68.07;99798.09;4983041;28;20061;-66
2022/11/21 02:04:31;;;;;;;43.50;22.15;;;;;;;-3.40;70.19;99788.22;4982505;28;20460;-65
2022/11/21 02:07:23;;;;;;;38.78;20.05;;;;;;;-3.16;69.60;99798.97;4983007;28;20138;-64
2022/11/21 02:09:55;;;;;;;42.30;21.88;;;;;;;-3.01;69.47;99801.56;4982429;28;20058;-66
2022/11/21 02:12:28;;;;;;;45.40;21.83;;;;;;;-2.80;69.17;99789.72;4981523;28;20057;-66
2022/11/21 02:14:56;;;;;;;40.97;20.27;;;;;;;-2.95;69.65;99798.56;4976756;28;20057;-65
2022/11/21 02:17:25;;;;;;;44.60;21.83;;;;;;;-2.63;68.57;99797.34;4987106;28;20054;-65
2022/11/21 02:19:56;;;;;;;42.50;21.35;;;;;;;-2.57;67.50;99786.47;4981738;28;20392;-66
2022/11/21 02:22:31;;;;;;;44.42;21.27;;;;;;;-2.34;67.71;99792.00;4981141;28;20499;-65
2022/11/21 02:25:14;;;;;;;40.58;20.65;;;;;;;-2.19;67.14;99791.00;4981387;28;20057;-66
2022/11/21 02:27:41;;;;;;;45.60;22.30;;;;;;;-2.18;66.53;99789.22;4981256;28;20057;-67
2022/11/21 02:30:09;;;;;;;42.47;21.30;;;;;;;-2.04;66.46;99791.75;4981364;28;20043;-65
2022/11/21 02:32:44;;;;;;;43.15;22.33;;;;;;;-2.22;66.93;99783.31;4980428;28;20042;-65
2022/11/21 02:35:10;;;;;;;44.45;22.95;;;;;;;-2.28;67.10;99781.09;4981023;28;20050;-64
2022/11/21 02:37:36;;;;;;;47.33;23.70;;;;;;;-2.31;66.91;99768.16;4980684;28;20067;-66
2022/11/21 02:40:11;;;;;;;44.80;22.60;;;;;;;-2.19;66.90;99763.88;4980599;28;20054;-66
2022/11/21 02:42:50;;;;;;;44.55;22.13;;;;;;;-2.17;66.67;99757.56;4981201;28;20050;-66
2022/11/21 02:45:32;;;;;;;45.95;23.38;;;;;;;-2.26;67.22;99757.34;4979156;28;20081;-67
2022/11/21 02:47:58;;;;;;;42.50;21.73;;;;;;;-2.27;67.04;99750.41;4985609;28;20500;-67
2022/11/21 02:50:35;;;;;;;43.72;22.30;;;;;;;-2.33;67.35;99747.25;4981796;28;20400;-66
2022/11/21 02:53:03;;;;;;;45.35;22.52;;;;;;;-2.44;67.31;99739.25;4981431;28;20058;-64
2022/11/21 02:55:30;;;;;;;43.95;22.05;;;;;;;-2.43;67.63;99748.78;4974121;28;20055;-66
2022/11/21 02:57:57;;;;;;;47.22;23.63;;;;;;;-2.34;67.30;99744.69;4960865;28;20110;-67
2022/11/21 03:00:30;;;;;;;41.90;21.33;;;;;;;-2.33;67.33;99747.25;4960850;28;20059;-67
2022/11/21 03:02:57;;;;;;;43.63;21.60;;;;;;;-2.39;68.00;99749.44;4960664;28;20073;-65
2022/11/21 03:05:23;;;;;;;47.72;22.25;;;;;;;-2.46;67.46;99751.63;4961220;28;20071;-67
2022/11/21 03:07:50;;;;;;;45.00;22.50;;;;;;;-2.51;67.17;99747.59;4959947;28;20051;-65
2022/11/21 03:10:16;;;;;;;46.47;22.88;;;;;;;-2.66;67.77;99749.44;4954442;28;20051;-65
2022/11/21 03:12:43;;;;;;;44.85;22.60;;;;;;;-2.64;67.79;99747.56;4961577;28;20058;-66
2022/11/21 03:15:12;;;;;;;44.65;22.45;;;;;;;-2.65;67.99;99748.50;4960394;28;20491;-66
2022/11/21 03:17:39;;;;;;;42.50;22.90;;;;;;;-2.77;68.32;99737.03;4959823;28;20094;-66
2022/11/21 03:20:07;;;;;;;48.50;23.17;;;;;;;-2.72;67.87;99744.59;4959824;28;20050;-65
2022/11/21 03:22:33;;;;;;;44.58;21.02;;;;;;;-2.78;68.71;99742.38;4961093;28;20047;-65
2022/11/21 03:25:00;;;;;;;46.85;22.42;;;;;;;-2.69;68.69;99739.16;4960454;28;20065;-65
2022/11/21 03:27:26;;;;;;;42.95;23.02;;;;;;;-2.72;68.23;99734.97;4960162;28;20143;-67
2022/11/21 03:29:53;;;;;;;47.47;24.17;;;;;;;-2.60;68.38;99746.44;4958715;28;20275;-67
2022/11/21 03:32:19;;;;;;;46.40;23.90;;;;;;;-2.68;68.31;99740.84;4959012;28;20053;-66
2022/11/21 03:34:46;;;;;;;47.38;23.77;;;;;;;-2.59;68.07;99741.06;4960021;28;20047;-65
2022/11/21 03:37:12;;;;;;;49.15;24.08;;;;;;;-2.40;67.67;99750.38;4959953;28;20055;-67
2022/11/21 03:39:39;;;;;;;48.42;23.77;;;;;;;-2.42;68.22;99747.84;4960462;28;20051;-64
2022/11/21 03:42:05;;;;;;;49.63;24.80;;;;;;;-2.43;68.23;99743.53;4959104;28;20047;-66
2022/11/21 03:44:31;;;;;;;47.58;22.90;;;;;;;-2.38;68.37;99749.31;4960078;28;20051;-67
2022/11/21 03:46:58;;;;;;;50.40;23.90;;;;;;;-2.46;68.78;99756.88;4960941;28;20054;-66
2022/11/21 03:49:24;;;;;;;47.58;23.50;;;;;;;-3.08;70.08;99761.75;4959814;28;20066;-67
2022/11/21 03:51:51;;;;;;;49.30;24.20;;;;;;;-2.59;69.20;99766.50;4959526;28;20047;-66
2022/11/21 03:54:17;;;;;;;48.50;23.75;;;;;;;-2.54;69.13;99774.09;4959281;28;20051;-66
2022/11/21 03:56:44;;;;;;;44.92;21.77;;;;;;;-2.68;69.01;99772.34;4977067;28;20077;-66
2022/11/21 03:59:10;;;;;;;48.35;23.15;;;;;;;-2.87;69.68;99765.63;4980222;28;20053;-66
2022/11/21 04:01:37;;;;;;;42.75;22.85;;;;;;;-2.53;68.97;99771.34;4978394;28;20507;-65
2022/11/21 04:04:04;;;;;;;46.42;23.48;;;;;;;-3.12;70.31;99765.50;4978457;28;20078;-64
2022/11/21 04:06:31;;;;;;;46.97;23.20;;;;;;;-2.68;69.45;99767.94;4978204;28;20118;-67
2022/11/21 04:08:57;;;;;;;49.65;24.63;;;;;;;-3.20;70.49;99776.50;4979119;28;20047;-67
2022/11/21 04:11:24;;;;;;;47.13;22.85;;;;;;;-2.76;69.66;99770.19;4980037;28;20054;-66
2022/11/21 04:13:53;;;;;;;47.47;24.23;;;;;;;-2.54;69.65;99769.66;4982457;28;20492;-66
2022/11/21 04:16:20;;;;;;;47.55;23.35;;;;;;;-2.82;69.45;99766.19;4982473;28;20047;-65
2022/11/21 04:18:46;;;;;;;54.25;27.35;;;;;;;-2.33;68.60;99772.69;4982730;28;20050;-65
2022/11/21 04:21:13;;;;;;;49.00;25.80;;;;;;;-2.17;68.00;99761.97;4983576;28;20126;-66
2022/11/21 04:23:39;;;;;;;49.40;25.08;;;;;;;-2.14;67.29;99770.50;4981914;28;20047;-66
2022/11/21 04:26:06;;;;;;;49.00;24.02;;;;;;;-2.23;68.01;99763.25;4981876;28;20419;-65
2022/11/21 04:28:32;;;;;;;49.67;25.17;;;;;;;-2.33;67.63;99773.50;4982162;28;20372;-67
2022/11/21 04:31:04;;;;;;;54.85;24.63;;;;;;;-2.35;68.03;99767.50;4981460;28;20065;-66
2022/11/21 04:33:36;;;;;;;49.42;25.40;;;;;;;-2.16;67.31;99772.41;4979493;28;20074;-66
2022/11/21 04:36:02;;;;;;;46.65;24.70;;;;;;;-2.07;66.81;99762.22;4981798;28;20046;-65
2022/11/21 04:38:29;;;;;;;53.42;25.90;;;;;;;-2.21;67.55;99771.84;4982008;28;20422;-66
2022/11/21 04:40:55;;;;;;;46.78;24.40;;;;;;;-2.25;67.31;99770.38;4980668;28;20050;-66
2022/11/21 04:43:22;;;;;;;48.92;24.27;;;;;;;-2.19;67.04;99764.72;4980854;28;20058;-67
2022/11/21 04:45:48;;;;;;;51.83;25.60;;;;;;;-2.21;67.20;99763.13;4979088;28;20051;-66
2022/11/21 04:48:15;;;;;;;51.67;24.67;;;;;;;-2.28;67.46;99762.69;4982650;28;20042;-65
2022/11/21 04:50:41;;;;;;;47.30;24.95;;;;;;;-2.19;67.01;99769.13;4983782;28;20043;-65
2022/11/21 04:53:08;;;;;;;45.58;24.65;;;;;;;-2.18;66.92;99769.03;4982145;28;20053;-65
2022/11/21 04:55:34;;;;;;;48.03;24.80;;;;;;;-2.12;67.32;99775.66;4975661;28;20419;-64
2022/11/21 04:58:01;;;;;;;52.38;24.88;;;;;;;-2.08;66.81;99771.03;4962880;28;20047;-65
2022/11/21 05:00:27;;;;;;;49.42;24.40;;;;;;;-2.10;67.12;99771.13;4961541;28;20063;-66
2022/11/21 05:02:54;;;;;;;53.38;25.40;;;;;;;-2.07;67.23;99768.31;4962882;28;20051;-66
2022/11/21 05:05:20;;;;;;;45.58;23.83;;;;;;;-2.04;67.05;99768.09;4962882;28;20058;-68
2022/11/21 05:07:47;;;;;;;46.70;24.73;;;;;;;-2.00;66.48;99763.47;4964053;28;20124;-64
2022/11/21 05:10:13;;;;;;;56.00;25.83;;;;;;;-1.93;66.70;99770.00;4961914;28;20051;-64
2022/11/21 05:15:25;;;;;;;59.58;27.38;;;;;;;-1.93;66.92;99770.00;4961616;28;20067;-66
2022/11/21 05:17:51;;;;;;;58.55;26.60;;;;;;;-1.87;66.44;99770.44;4961618;28;20410;-66
2022/11/21 05:20:18;;;;;;;56.03;26.75;;;;;;;-1.93;66.06;99772.63;4963254;28;20058;-66
2022/11/21 05:22:48;;;;;;;57.17;27.17;;;;;;;-1.85;66.88;99775.59;4962339;28;20047;-67
2022/11/21 05:25:15;;;;;;;65.53;28.83;;;;;;;-1.83;66.47;99780.75;4964452;28;20430;-66
2022/11/21 05:27:42;;;;;;;57.83;27.67;;;;;;;-1.89;67.24;99774.09;4961255;28;20138;-65
2022/11/21 05:30:09;;;;;;;62.75;29.98;;;;;;;-1.82;66.82;99778.00;4959731;28;20496;-67
2022/11/21 05:32:36;;;;;;;60.55;28.90;;;;;;;-1.82;66.77;99782.41;4961069;28;20054;-66
2022/11/21 05:35:03;;;;;;;60.38;26.92;;;;;;;-1.94;67.15;99776.22;4959103;28;20217;-66
2022/11/21 05:37:29;;;;;;;52.63;25.98;;;;;;;-1.79;66.86;99776.97;4959643;28;20504;-67
2022/11/21 05:39:56;;;;;;;53.88;25.77;;;;;;;-1.77;66.27;99775.06;4959683;28;20043;-67
2022/11/21 05:43:44;;;;;;;50.03;25.23;;;;;;;-1.80;67.01;99775.28;4959892;28;20051;-66
2022/11/21 05:45:09;;;;;;;49.55;24.23;;;;;;;-1.76;66.63;99768.88;4958593;28;20051;-67
2022/11/21 05:47:36;;;;;;;49.35;25.08;;;;;;;-1.74;66.31;99769.63;4951824;28;20055;-67
2022/11/21 05:50:03;;;;;;;52.72;24.88;;;;;;;-1.76;66.75;99771.50;4958370;28;20054;-64
2022/11/21 05:52:29;;;;;;;54.08;25.15;;;;;;;-1.76;66.71;99768.88;4958471;28;20051;-67
2022/11/21 05:54:56;;;;;;;51.35;25.85;;;;;;;-1.74;66.69;99765.19;4960757;28;20047;-64
2022/11/21 05:57:22;;;;;;;51.10;24.88;;;;;;;-1.71;67.02;99764.16;4976790;28;20050;-67
2022/11/21 05:59:48;;;;;;;53.63;25.63;;;;;;;-1.67;66.43;99765.63;4978077;28;20047;-66
2022/11/21 06:05:00;;;;;;;46.28;25.00;;;;;;;-1.59;66.54;99771.19;4978581;28;20042;-66
2022/11/21 06:07:27;;;;;;;47.80;24.17;;;;;;;-1.61;66.40;99770.47;4976285;28;20051;-65
2022/11/21 06:09:53;;;;;;;52.92;25.38;;;;;;;-1.58;66.34;99770.22;4978569;28;20053;-66
2022/11/21 06:12:19;;;;;;;48.00;24.55;;;;;;;-1.63;66.79;99778.44;4977991;28;20069;-67
2022/11/21 06:14:50;;;;;;;53.60;25.83;;;;;;;-1.87;67.71;99780.09;4962781;28;20046;-66
2022/11/21 06:17:17;;;;;;;46.88;25.55;;;;;;;-1.72;67.32;99772.97;4938864;28;20067;-65
2022/11/21 06:19:44;;;;;;;48.50;25.67;;;;;;;-1.65;67.13;99779.47;4938096;28;20047;-66
2022/11/21 06:22:10;;;;;;;49.15;24.90;;;;;;;-1.65;67.07;99775.06;4939541;28;20405;-67
2022/11/21 06:24:36;;;;;;;53.22;26.05;;;;;;;-1.59;66.73;99776.44;4937975;28;20051;-67
2022/11/21 06:27:03;;;;;;;47.47;25.45;;;;;;;-1.57;66.87;99771.09;4938803;28;20047;-66
2022/11/21 06:29:29;;;;;;;53.80;26.63;;;;;;;-1.60;67.38;99777.41;4937860;28;20043;-67
2022/11/21 06:31:56;;;;;;;47.42;23.73;;;;;;;-1.52;67.47;99774.22;4940167;28;20061;-68
2022/11/21 06:34:24;;;;;;;51.10;26.15;;;;;;;-1.52;66.70;99774.22;4938758;28;20044;-68
2022/11/21 06:36:52;;;;;;;50.95;25.05;;;;;;;-1.51;67.11;99773.28;4940076;28;20459;-67
2022/11/21 06:39:18;;;;;;;48.95;25.40;;;;;;;-1.50;67.12;99782.88;4940176;28;20048;-67
2022/11/21 06:41:49;;;;;;;51.30;25.23;;;;;;;-1.51;67.40;99782.00;4940148;28;20055;-66
2022/11/21 06:44:17;;;;;;;46.80;25.88;;;;;;;-1.53;67.66;99781.28;4938900;28;20500;-68
2022/11/21 06:46:44;;;;;;;58.63;26.33;;;;;;;-1.48;67.19;99780.94;4938366;28;20051;-66
2022/11/21 06:49:16;;;;;;;48.72;24.45;;;;;;;-1.51;67.64;99776.75;4938621;28;20047;-68
2022/11/21 06:51:43;;;;;;;47.45;23.63;;;;;;;-1.42;67.22;99781.38;4938649;28;20055;-66
2022/11/21 06:54:09;;;;;;;55.38;25.40;;;;;;;-1.36;66.77;99780.13;4938539;28;20415;-66
2022/11/21 06:56:42;;;;;;;58.38;28.40;;;;;;;-1.32;66.91;99783.38;4970814;28;20522;-65
2022/11/21 06:59:08;;;;;;;51.25;26.27;;;;;;;-1.28;67.09;99790.09;4977594;28;20053;-67
2022/11/21 07:01:35;;;;;;;54.40;25.60;;;;;;;-1.31;67.24;99798.19;4978159;28;20047;-67
2022/11/21 07:04:01;;;;;;;56.05;26.25;;;;;;;-1.42;67.33;99802.41;4977018;28;20058;-67
2022/11/21 07:06:28;;;;;;;48.20;24.98;;;;;;;-1.35;67.45;99802.00;4976279;28;20065;-67
2022/11/21 07:08:54;;;;;;;51.60;26.02;;;;;;;-1.31;67.45;99817.47;4976710;28;20049;-65
2022/11/21 07:11:41;;;;;;;53.20;26.58;;;;;;;-1.44;67.77;99814.84;4976389;28;20038;-66
2022/11/21 07:14:08;;;;;;;52.63;26.73;;;;;;;-1.29;67.04;99806.84;4976970;28;20105;-66
2022/11/21 07:16:35;;;;;;;50.85;24.85;;;;;;;-1.27;66.97;99820.72;4975817;28;20054;-67
2022/11/21 07:19:02;;;;;;;47.13;24.88;;;;;;;-1.24;67.41;99810.81;4975894;28;20061;-65
2022/11/21 07:21:28;;;;;;;57.03;26.38;;;;;;;-1.39;67.66;99818.00;4976770;28;20050;-67
2022/11/21 07:23:55;;;;;;;50.20;25.95;;;;;;;-1.30;67.23;99815.66;4976327;28;20043;-65
2022/11/21 07:26:21;;;;;;;56.35;26.55;;;;;;;-1.27;67.09;99820.72;4978467;28;20045;-67
2022/11/21 07:28:47;;;;;;;57.33;28.77;;;;;;;-1.32;67.65;99825.47;4977629;28;20051;-66
2022/11/21 07:31:14;;;;;;;61.65;29.35;;;;;;;-1.29;67.62;99820.84;4977142;28;20058;-65
2022/11/21 07:33:45;;;;;;;56.97;27.95;;;;;;;-1.29;68.01;99838.41;4976865;28;20047;-66
2022/11/21 07:36:12;;;;;;;57.95;27.85;;;;;;;-1.24;67.46;99829.25;4977414;28;20120;-65
2022/11/21 07:38:40;;;;;;;52.58;26.58;;;;;;;-1.23;67.60;99833.59;4977510;28;20043;-65
2022/11/21 07:41:07;;;;;;;62.53;28.58;;;;;;;-1.23;68.10;99830.94;4977115;28;20487;-67
2022/11/21 07:43:33;;;;;;;62.83;30.25;;;;;;;-1.08;67.05;99838.72;4977162;28;20051;-67
2022/11/21 07:46:00;;;;;;;60.85;29.83;;;;;;;-1.28;68.22;99840.09;4978008;28;20051;-67
2022/11/21 07:48:26;;;;;;;55.95;27.48;;;;;;;-1.12;67.81;99839.88;4980377;28;20511;-68
2022/11/21 07:50:53;;;;;;;63.03;31.20;;;;;;;-1.16;67.70;99839.22;4981063;28;20047;-67
2022/11/21 07:53:19;;;;;;;62.13;30.00;;;;;;;-1.35;68.04;99838.84;4980714;28;20051;-67
2022/11/21 07:55:46;;;;;;;58.75;29.23;;;;;;;-1.04;67.39;99842.81;4971970;28;20049;-67
2022/11/21 07:58:14;;;;;;;57.05;28.52;;;;;;;-0.99;66.67;99851.22;4961962;28;20055;-67
2022/11/21 08:00:44;;;;;;;56.55;29.00;;;;;;;-0.87;66.47;99849.53;4961609;28;20047;-68
2022/11/21 08:03:11;;;;;;;57.38;29.15;;;;;;;-0.99;67.00;99860.00;4961058;28;20134;-67
2022/11/21 08:05:41;;;;;;;59.63;29.83;;;;;;;-1.03;67.03;99857.66;4944993;28;20047;-65
2022/11/21 08:08:09;;;;;;;65.13;30.73;;;;;;;-1.11;67.35;99850.28;4943113;28;20047;-66
2022/11/21 08:10:37;;;;;;;64.68;30.17;;;;;;;-1.03;66.82;99860.28;4942697;28;20564;-65
2022/11/21 08:13:04;;;;;;;71.25;32.63;;;;;;;-1.20;67.17;99854.41;4942470;28;20131;-66
2022/11/21 08:15:31;;;;;;;70.35;31.75;;;;;;;-1.72;68.10;99857.94;4943060;28;20054;-67
2022/11/21 08:17:57;;;;;;;65.30;33.08;;;;;;;-1.79;68.69;99861.09;4943352;28;20044;-66
2022/11/21 08:20:24;;;;;;;61.97;30.83;;;;;;;-1.77;68.77;99859.22;4943963;28;20048;-66
2022/11/21 08:22:50;;;;;;;58.40;29.38;;;;;;;-1.63;67.88;99854.72;4943753;28;20039;-65
2022/11/21 08:25:17;;;;;;;62.53;31.17;;;;;;;-1.45;67.61;99860.50;4942435;28;20048;-66
2022/11/21 08:27:43;;;;;;;60.50;29.85;;;;;;;-1.51;67.74;99860.06;4941761;28;20043;-67
2022/11/21 08:30:11;;;;;;;65.53;31.15;;;;;;;-1.50;68.06;99869.69;4942386;28;20047;-67
2022/11/21 08:32:37;;;;;;;64.38;29.80;;;;;;;-1.51;68.09;99874.06;4941184;28;20047;-67
2022/11/21 08:35:04;;;;;;;61.30;28.85;;;;;;;-1.43;67.81;99876.19;4934535;28;20073;-66
2022/11/21 08:37:30;;;;;;;64.25;31.27;;;;;;;-1.35;66.81;99880.94;4954743;28;20054;-69
2022/11/21 08:39:57;;;;;;;62.35;29.33;;;;;;;-1.68;67.66;99882.25;4941384;28;20044;-68
2022/11/21 08:42:24;;;;;;;57.80;27.42;;;;;;;-1.95;68.18;99885.78;4942698;28;20047;-67
2022/11/21 08:44:51;;;;;;;57.33;27.40;;;;;;;-1.59;66.72;99889.53;4941641;28;20496;-66
2022/11/21 08:47:19;;;;;;;55.08;26.35;;;;;;;-1.89;67.54;99893.28;4942061;28;20130;-67
2022/11/21 08:49:46;;;;;;;54.05;26.13;;;;;;;-2.27;68.84;99898.34;4942366;28;20066;-68
2022/11/21 08:52:16;;;;;;;49.65;23.05;;;;;;;-2.23;68.87;99894.63;4937203;28;20057;-67
2022/11/21 08:54:44;;;;;;;56.13;26.73;;;;;;;-1.86;68.15;99897.47;4942962;28;20397;-67
2022/11/21 08:57:11;;;;;;;57.33;27.23;;;;;;;-1.91;67.62;99908.28;4979034;28;20051;-67
2022/11/21 08:59:38;;;;;;;60.80;26.02;;;;;;;-2.07;68.32;99904.97;4980214;28;20049;-67
2022/11/21 09:02:04;;;;;;;60.65;27.88;;;;;;;-1.98;67.89;99904.38;4979833;28;20135;-67
2022/11/21 09:04:31;;;;;;;60.53;29.70;;;;;;;-1.89;68.38;99906.41;4971925;28;20047;-65
2022/11/21 09:06:57;;;;;;;67.10;29.42;;;;;;;-1.80;67.44;99901.47;4994432;28;20043;-68
2022/11/21 09:09:24;;;;;;;56.50;27.20;;;;;;;-2.14;68.61;99906.31;4982587;28;20047;-66
2022/11/21 09:11:51;;;;;;;57.75;26.05;;;;;;;-1.89;68.23;99910.81;4981360;28;20053;-67
2022/11/21 09:19:48;;;;;;;55.00;25.80;;;;;;;-1.68;67.18;99912.03;4980167;28;20053;-64
2022/11/21 09:22:14;;;;;;;57.00;26.23;;;;;;;-1.84;67.34;99911.38;4980125;28;20062;-65
2022/11/21 09:24:41;;;;;;;50.00;23.48;;;;;;;-1.76;66.70;99918.75;4979889;28;20047;-65
2022/11/21 09:27:07;;;;;;;56.17;26.92;;;;;;;-1.80;66.89;99920.72;4978995;28;20050;-67
2022/11/21 09:29:34;;;;;;;52.60;23.42;;;;;;;-1.88;66.68;99918.59;4980790;28;20043;-65
2022/11/21 09:32:00;;;;;;;41.58;19.38;;;;;;;-2.03;66.69;99916.97;4979757;28;20053;-65
2022/11/21 09:34:26;;;;;;;35.53;18.33;;;;;;;-2.21;66.89;99926.88;4980468;28;20154;-68
2022/11/21 09:36:54;;;;;;;38.80;19.48;;;;;;;-2.43;67.67;99918.69;4975947;28;20043;-67
2022/11/21 09:39:21;;;;;;;38.33;18.98;;;;;;;-2.28;67.56;99928.22;4978024;28;20047;-67
2022/11/21 09:42:02;;;;;;;33.40;18.67;;;;;;;-2.11;66.86;99925.34;4979419;28;20043;-67
2022/11/21 09:44:38;;;;;;;37.70;19.52;;;;;;;-2.16;66.90;99927.44;4978928;28;20042;-66
2022/11/21 09:47:18;;;;;;;37.78;19.15;;;;;;;-2.09;66.69;99927.88;4979164;28;20043;-67
2022/11/21 09:49:50;;;;;;;35.45;17.13;;;;;;;-1.90;66.25;99931.00;4978187;28;20038;-67
2022/11/21 09:52:18;;;;;;;;;;;;;;;-1.99;66.42;99928.97;4979486;28;20046;-67
2022/11/21 09:54:52;;;;;;;31.25;16.10;;;;;;;-1.89;65.58;99930.06;4977269;28;19922;-66
2022/11/21 09:57:23;;;;;;;31.95;16.15;;;;;;;-1.91;65.73;99931.94;4959841;28;20043;-67
2022/11/21 09:59:50;;;;;;;32.97;16.35;;;;;;;-2.16;66.30;99937.09;4959127;28;20047;-67
2022/11/21 10:02:20;;;;;;;34.40;16.83;;;;;;;-1.90;65.81;99935.41;4958827;28;20048;-67
2022/11/21 10:04:47;;;;;;;31.80;16.13;;;;;;;-2.11;66.61;99940.28;4958633;28;20149;-67
2022/11/21 10:07:28;;;;;;;28.55;15.27;;;;;;;-1.83;65.51;99946.38;4957489;28;20062;-67
2022/11/21 10:10:00;;;;;;;27.27;14.05;;;;;;;-1.69;64.52;99943.69;4958208;28;20083;-67
2022/11/21 10:12:59;;;;;;;29.98;15.02;;;;;;;-1.60;64.50;99945.72;4958117;28;20419;-69
2022/11/21 10:15:51;;;;;;;32.28;16.83;;;;;;;-1.73;65.01;99947.47;4958193;28;20055;-67
2022/11/21 10:18:51;;;;;;;32.42;17.00;;;;;;;-1.69;64.87;99955.03;4957979;28;20445;-66
2022/11/21 10:21:47;;;;;;;28.30;14.48;;;;;;;-1.65;64.42;99956.53;4958415;28;20673;-65
2022/11/21 10:24:29;;;;;;;27.27;14.10;;;;;;;-1.60;64.50;99961.50;4958835;28;20057;-65
2022/11/21 10:27:10;;;;;;;27.52;14.90;;;;;;;-2.12;66.69;99963.09;4957004;28;20081;-66
2022/11/21 10:29:52;;;;;;;25.93;14.00;;;;;;;-1.97;65.63;99971.75;4957975;28;20044;-66
2022/11/21 10:32:36;;;;;;;25.23;14.05;;;;;;;-1.91;65.37;99978.44;4958268;28;20062;-67
2022/11/21 10:35:20;;;;;;;26.50;13.70;;;;;;;-1.71;65.05;99974.53;4956626;28;20042;-66
2022/11/21 10:37:51;;;;;;;25.08;13.77;;;;;;;-1.99;64.77;99971.03;4962794;28;20055;-66
2022/11/21 10:40:42;;;;;;;19.87;10.47;;;;;;;-1.80;64.86;99977.72;4957776;28;20408;-67
2022/11/21 10:46:00;;;;;;;24.73;13.13;;;;;;;-1.71;64.55;99966.63;4957007;28;20063;-67
2022/11/21 10:48:26;;;;;;;24.27;12.98;;;;;;;-1.58;63.54;99967.47;4958465;28;20077;-65
2022/11/21 10:51:23;;;;;;;27.42;13.75;;;;;;;-1.84;64.40;99973.63;4957252;28;20051;-66
2022/11/21 10:57:04;;;;;;;25.17;12.77;;;;;;;-2.14;65.59;99975.47;4975731;28;20050;-67
2022/11/21 10:59:31;;;;;;;22.38;11.85;;;;;;;-2.05;65.73;99973.22;4977248;28;20406;-67
2022/11/21 11:02:11;;;;;;;24.38;12.32;;;;;;;-1.84;64.84;99974.47;4977765;28;20050;-68
2022/11/21 11:04:38;;;;;;;24.10;12.52;;;;;;;-1.65;64.60;99974.94;4977232;28;20162;-66
2022/11/21 11:07:26;;;;;;;22.75;12.25;;;;;;;-1.71;64.08;99977.16;4976719;28;20129;-66
2022/11/21 11:10:23;;;;;;;29.13;13.40;;;;;;;-1.86;65.11;99977.16;4981986;28;20550;-66
2022/11/21 11:16:17;;;;;;;24.25;12.65;;;;;;;-1.60;64.26;99979.91;4977311;28;20102;-68
2022/11/21 11:18:50;;;;;;;21.45;11.70;;;;;;;-1.81;64.84;99989.19;4975876;28;20509;-67
2022/11/21 11:21:23;;;;;;;18.23;10.30;;;;;;;-2.00;64.84;99982.47;4976045;28;20065;-65
2022/11/21 11:23:52;;;;;;;20.50;10.93;;;;;;;-1.76;64.33;99989.72;4978774;28;20046;-66
2022/11/21 11:26:30;;;;;;;21.85;11.82;;;;;;;-1.60;63.81;99981.69;4974273;28;20051;-66
2022/11/21 11:29:14;;;;;;;22.35;11.32;;;;;;;-1.51;63.76;99981.06;4974668;28;20051;-66
2022/11/21 11:31:42;;;;;;;20.58;10.93;;;;;;;-1.44;63.25;99983.22;4974162;28;20043;-66
2022/11/21 11:34:14;;;;;;;19.70;10.27;;;;;;;-1.31;63.17;99979.75;4973927;28;20042;-66
2022/11/21 11:36:49;;;;;;;23.40;11.38;;;;;;;-1.27;62.24;99987.34;4974716;28;20047;-65
2022/11/21 11:39:23;;;;;;;25.85;13.68;;;;;;;-1.38;62.98;99992.47;4974631;28;20046;-67
2022/11/21 11:48:00;;;;;;;18.77;10.05;;;;;;;-2.39;66.26;99981.44;4974762;28;20055;-67
2022/11/21 11:50:42;;;;;;;27.63;13.73;;;;;;;-1.91;65.19;99974.00;4974683;28;20050;-68
2022/11/21 11:53:33;;;;;;;32.40;14.82;;;;;;;-1.52;63.49;99974.13;4974525;28;20054;-65